<?xml version="1.0" encoding="utf-8"?>
<gpx xmlns:xsi="http://www.w3.org/2001/XMLSchema-instance" xmlns:xsd="http://www.w3.org/2001/XMLSchema" version="1.1" creator="Shapelink.com" xmlns="http://www.topografix.com/GPX/1/1" xmlns:gpxtpx="http://www.garmin.com/xmlschemas/TrackPointExtension/v1">
  <metadata>
    <name>Övrigt 1.00 km, 2020-01-01</name>
    <desc></desc>
    <author><name>Marian Moron</name></author> 
    <time>2020-01-01T20:06:48Z</time>
  </metadata>
  <trk>
    <name>Övrigt 1.00 km, 2020-01-01</name>
    <trkseg>
      <trkpt lat="51.230106247714" lon="4.457954418672">
        <ele>0</ele>
        <time>2020-01-01T20:06:48Z</time>
      </trkpt>
      <trkpt lat="51.230170788344" lon="4.458689511302">
        <ele>5</ele>
        <time>2020-01-01T20:07:23Z</time>
      </trkpt>
      <trkpt lat="51.230272712248" lon="4.458812138499">
        <ele>6.4</ele>
        <time>2020-01-01T20:07:33Z</time>
      </trkpt>
      <trkpt lat="51.230438590049" lon="4.458849018859">
        <ele>12</ele>
        <time>2020-01-01T20:08:11Z</time>
      </trkpt>
      <trkpt lat="51.230429956692" lon="4.459088405923">
        <ele>13.6</ele>
        <time>2020-01-01T20:08:29Z</time>
      </trkpt>
      <trkpt lat="51.230475554228" lon="4.459315220137">
        <ele>15.6</ele>
        <time>2020-01-01T20:08:39Z</time>
      </trkpt>
      <trkpt lat="51.230489384363" lon="4.45939040578">
        <ele>7.4</ele>
        <time>2020-01-01T20:09:17Z</time>
      </trkpt>
      <trkpt lat="51.230464238663" lon="4.459672624353">
        <ele>4.6</ele>
        <time>2020-01-01T20:09:39Z</time>
      </trkpt>
      <trkpt lat="51.230480080454" lon="4.45967622857">
        <ele>3</ele>
        <time>2020-01-01T20:09:49Z</time>
      </trkpt>
      <trkpt lat="51.230492737123" lon="4.459635743993">
        <ele>2.8</ele>
        <time>2020-01-01T20:09:51Z</time>
      </trkpt>
      <trkpt lat="51.230630032645" lon="4.45974496015">
        <ele>2.8</ele>
        <time>2020-01-01T20:10:01Z</time>
      </trkpt>
      <trkpt lat="51.231083828711" lon="4.45969215418">
        <ele>8.6</ele>
        <time>2020-01-01T20:10:36Z</time>
      </trkpt>
      <trkpt lat="51.231541648089" lon="4.459652004879">
        <ele>0</ele>
        <time>2020-01-01T20:10:59Z</time>
      </trkpt>
      <trkpt lat="51.231713812315" lon="4.459568269698">
        <ele>0</ele>
        <time>2020-01-01T20:11:15Z</time>
      </trkpt>
      <trkpt lat="51.231611217859" lon="4.459261073063">
        <ele>0</ele>
        <time>2020-01-01T20:11:36Z</time>
      </trkpt>
      <trkpt lat="51.23157676825" lon="4.459021518361">
        <ele>0</ele>
        <time>2020-01-01T20:11:47Z</time>
      </trkpt>
      <trkpt lat="51.231544749392" lon="4.458912050747">
        <ele>0</ele>
        <time>2020-01-01T20:12:00Z</time>
      </trkpt>
      <trkpt lat="51.23149881658" lon="4.458668472733">
        <ele>0</ele>
        <time>2020-01-01T20:12:14Z</time>
      </trkpt>
      <trkpt lat="51.231437963986" lon="4.458519358732">
        <ele>0</ele>
        <time>2020-01-01T20:12:26Z</time>
      </trkpt>
      <trkpt lat="51.231231182513" lon="4.45841978176">
        <ele>0</ele>
        <time>2020-01-01T20:13:26Z</time>
      </trkpt>
      <trkpt lat="51.231143843115" lon="4.457723916422">
        <ele>0</ele>
        <time>2020-01-01T20:13:57Z</time>
      </trkpt>
      <trkpt lat="51.231180136742" lon="4.457140871458">
        <ele>0</ele>
        <time>2020-01-01T20:14:24Z</time>
      </trkpt>
      <trkpt lat="51.231291196917" lon="4.45651960503">
        <ele>0</ele>
        <time>2020-01-01T20:14:49Z</time>
      </trkpt>
      <trkpt lat="51.23123311035" lon="4.456484820145">
        <ele>0</ele>
        <time>2020-01-01T20:14:53Z</time>
      </trkpt>
      <trkpt lat="51.231149207531" lon="4.456480964471">
        <ele>0</ele>
        <time>2020-01-01T20:14:57Z</time>
      </trkpt>
      <trkpt lat="51.23111744013" lon="4.456257670655">
        <ele>0.2</ele>
        <time>2020-01-01T20:15:42Z</time>
      </trkpt>
      <trkpt lat="51.231025993601" lon="4.456135127277">
        <ele>0.8</ele>
        <time>2020-01-01T20:15:52Z</time>
      </trkpt>
      <trkpt lat="51.230920046385" lon="4.456297233223">
        <ele>3.6</ele>
        <time>2020-01-01T20:16:17Z</time>
      </trkpt>
      <trkpt lat="51.230941839325" lon="4.456416423841">
        <ele>2.8</ele>
        <time>2020-01-01T20:16:23Z</time>
      </trkpt>
      <trkpt lat="51.230961452971" lon="4.456480461557">
        <ele>2.8</ele>
        <time>2020-01-01T20:16:27Z</time>
      </trkpt>
      <trkpt lat="51.231176364887" lon="4.456375268712">
        <ele>7.6</ele>
        <time>2020-01-01T20:16:41Z</time>
      </trkpt>
      <trkpt lat="51.231205366261" lon="4.456439390247">
        <ele>5.2</ele>
        <time>2020-01-01T20:16:43Z</time>
      </trkpt>
      <trkpt lat="51.231223722622" lon="4.456493872597">
        <ele>4.4</ele>
        <time>2020-01-01T20:16:45Z</time>
      </trkpt>
      <trkpt lat="51.231286251596" lon="4.457215135092">
        <ele>2.2</ele>
        <time>2020-01-01T20:17:14Z</time>
      </trkpt>
      <trkpt lat="51.231107800945" lon="4.457643869277">
        <ele>8</ele>
        <time>2020-01-01T20:17:36Z</time>
      </trkpt>
      <trkpt lat="51.230974864011" lon="4.457662393276">
        <ele>8.6</ele>
        <time>2020-01-01T20:17:48Z</time>
      </trkpt>
      <trkpt lat="51.230772608764" lon="4.457690724098">
        <ele>7.8</ele>
        <time>2020-01-01T20:18:08Z</time>
      </trkpt>
      <trkpt lat="51.230318393603" lon="4.457751325235">
        <ele>5</ele>
        <time>2020-01-01T20:18:39Z</time>
      </trkpt>
      <trkpt lat="51.230192329827" lon="4.457798180056">
        <ele>7.2</ele>
        <time>2020-01-01T20:18:48Z</time>
      </trkpt>
      <trkpt lat="51.229915224213" lon="4.458021473872">
        <ele>0.6</ele>
        <time>2020-01-01T20:19:43Z</time>
      </trkpt>
      <trkpt lat="51.229925282493" lon="4.458068328693">
        <ele>0</ele>
        <time>2020-01-01T20:19:46Z</time>
      </trkpt>
      <trkpt lat="51.229915056575" lon="4.458180562334">
        <ele>0</ele>
        <time>2020-01-01T20:19:52Z</time>
      </trkpt>
      <trkpt lat="51.229864094623" lon="4.45815826648">
        <ele>0</ele>
        <time>2020-01-01T20:19:59Z</time>
      </trkpt>
      <trkpt lat="51.229737444114" lon="4.458013427248">
        <ele>0</ele>
        <time>2020-01-01T20:20:21Z</time>
      </trkpt>
      <trkpt lat="51.229711963138" lon="4.457952239378">
        <ele>8.6</ele>
        <time>2020-01-01T20:20:51Z</time>
      </trkpt>
    </trkseg>
  </trk>
</gpx>